createdAt,value
2019-05-11T00:01:01.019Z,75.55
2019-05-11T00:03:33.844Z,75.13
2019-05-11T00:06:08.521Z,75.36
2019-05-11T00:08:48.831Z,73.43
2019-05-11T00:11:25.452Z,73.19
2019-05-11T00:13:58.811Z,73.32
2019-05-11T00:16:31.880Z,73.96
2019-05-11T00:19:03.185Z,73.86
2019-05-11T00:21:34.880Z,72.39
2019-05-11T00:24:09.865Z,72.89
2019-05-11T00:26:42.035Z,73.06
2019-05-11T00:29:15.457Z,72.94
2019-05-11T00:31:48.618Z,71.39
2019-05-11T00:34:20.177Z,70.18
2019-05-11T00:36:51.663Z,68.89
2019-05-11T00:39:24.341Z,68.17
2019-05-11T00:41:57.929Z,68.53
2019-05-11T00:44:29.440Z,66.74
2019-05-11T00:47:00.004Z,66.05
2019-05-11T00:49:32.148Z,64.02
2019-05-11T00:52:04.795Z,65.28
2019-05-11T00:54:38.412Z,64.67
2019-05-11T00:57:11.142Z,63.45
2019-05-11T00:59:43.521Z,63.80
2019-05-11T01:02:16.058Z,63.32
2019-05-11T01:04:48.633Z,61.88
2019-05-11T01:07:20.722Z,62.81
2019-05-11T01:09:53.565Z,62.15
2019-05-11T01:12:29.292Z,62.38
2019-05-11T01:15:01.504Z,61.93
2019-05-11T01:17:33.997Z,62.38
2019-05-11T01:20:06.965Z,62.77
2019-05-11T01:22:38.508Z,62.89
2019-05-11T01:25:11.615Z,61.94
2019-05-11T01:27:44.545Z,62.33
2019-05-11T01:30:17.434Z,62.27
2019-05-11T01:32:50.352Z,62.10
2019-05-11T01:35:22.736Z,62.03
2019-05-11T01:37:55.079Z,61.90
2019-05-11T01:40:28.297Z,60.88
2019-05-11T01:43:00.627Z,60.80
2019-05-11T01:45:32.114Z,61.16
2019-05-11T01:48:02.653Z,61.76
2019-05-11T01:50:34.324Z,62.11
2019-05-11T01:53:06.452Z,61.84
2019-05-11T01:55:38.762Z,61.81
2019-05-11T01:58:11.351Z,61.14
2019-05-11T02:00:43.733Z,61.29
2019-05-11T02:03:19.231Z,60.94
2019-05-11T02:05:51.861Z,61.35
2019-05-11T02:08:24.837Z,61.46
2019-05-11T02:11:13.731Z,60.34
2019-05-11T02:13:31.361Z,60.02
2019-05-11T02:16:03.252Z,60.06
2019-05-11T02:18:36.930Z,59.16
2019-05-11T02:21:10.127Z,59.71
2019-05-11T02:23:43.097Z,59.70
2019-05-11T02:26:18.450Z,60.00
2019-05-11T02:28:50.345Z,60.41
2019-05-11T02:31:22.301Z,60.40
2019-05-11T02:33:56.157Z,60.33
2019-05-11T02:36:28.636Z,59.71
2019-05-11T02:39:01.304Z,59.81
2019-05-11T02:41:36.938Z,57.87
2019-05-11T02:44:08.585Z,58.59
2019-05-11T02:46:41.142Z,58.97
2019-05-11T02:49:13.321Z,59.21
2019-05-11T02:51:45.943Z,58.82
2019-05-11T02:54:18.843Z,59.57
2019-05-11T02:56:51.744Z,59.59
2019-05-11T02:59:29.473Z,58.63
2019-05-11T03:01:59.413Z,58.86
2019-05-11T03:04:34.894Z,58.44
2019-05-11T03:07:08.051Z,59.10
2019-05-11T03:09:41.120Z,60.12
2019-05-11T03:12:14.092Z,59.83
2019-05-11T03:14:46.337Z,59.23
2019-05-11T03:17:20.663Z,58.74
2019-05-11T03:19:52.537Z,59.59
2019-05-11T03:22:25.736Z,59.42
2019-05-11T03:24:57.760Z,59.28
2019-05-11T03:27:29.951Z,58.39
2019-05-11T03:30:02.458Z,58.62
2019-05-11T03:32:35.250Z,58.78
2019-05-11T03:35:08.871Z,58.71
2019-05-11T03:37:42.527Z,57.47
2019-05-11T03:40:15.431Z,57.00
2019-05-11T03:42:48.087Z,57.55
2019-05-11T03:45:20.290Z,57.89
2019-05-11T03:47:52.683Z,57.20
2019-05-11T03:50:28.321Z,57.45
2019-05-11T03:53:01.321Z,56.68
2019-05-11T03:55:34.251Z,57.47
2019-05-11T03:58:06.735Z,57.39
2019-05-11T04:00:39.649Z,57.47
2019-05-11T04:03:11.952Z,58.07
2019-05-11T04:05:48.069Z,57.81
2019-05-11T04:08:20.741Z,57.58
2019-05-11T04:10:53.797Z,57.22
2019-05-11T04:13:26.254Z,56.85
2019-05-11T04:15:58.971Z,57.03
2019-05-11T04:18:31.695Z,56.46
2019-05-11T04:21:05.197Z,56.91
2019-05-11T04:23:37.232Z,57.58
2019-05-11T04:26:09.866Z,57.80
2019-05-11T04:28:42.282Z,58.71
2019-05-11T04:31:14.830Z,58.83
2019-05-11T04:33:50.383Z,58.39
2019-05-11T04:36:22.616Z,58.55
2019-05-11T04:38:54.141Z,58.01
2019-05-11T04:41:24.939Z,56.26
2019-05-11T04:43:56.583Z,55.55
2019-05-11T04:46:28.373Z,55.41
2019-05-11T04:49:04.983Z,55.68
2019-05-11T04:51:39.148Z,55.02
2019-05-11T04:54:11.825Z,55.26
2019-05-11T04:56:44.772Z,55.59
2019-05-11T04:59:17.439Z,55.33
2019-05-11T05:01:49.159Z,55.99
2019-05-11T05:04:22.370Z,55.75
2019-05-11T05:06:59.747Z,55.44
2019-05-11T05:09:28.174Z,55.61
2019-05-11T05:12:00.246Z,54.67
2019-05-11T05:14:32.935Z,55.37
2019-05-11T05:17:05.689Z,54.29
2019-05-11T05:19:38.622Z,55.00
2019-05-11T05:22:11.254Z,56.03
2019-05-11T05:24:44.235Z,55.56
2019-05-11T05:27:16.386Z,55.42
2019-05-11T05:29:49.188Z,55.49
2019-05-11T05:32:21.328Z,54.08
2019-05-11T05:34:54.288Z,53.83
2019-05-11T05:37:26.348Z,52.86
2019-05-11T05:39:58.657Z,52.68
2019-05-11T05:42:30.910Z,53.32
2019-05-11T05:45:03.691Z,54.07
2019-05-11T05:47:38.183Z,54.49
2019-05-11T05:50:11.172Z,55.21
2019-05-11T05:52:44.036Z,54.24
2019-05-11T05:55:16.750Z,53.76
2019-05-11T05:57:49.075Z,54.43
2019-05-11T06:00:21.765Z,55.17
2019-05-11T06:02:53.887Z,54.82
2019-05-11T06:05:26.273Z,54.56
2019-05-11T06:07:59.050Z,54.97
2019-05-11T06:10:31.906Z,55.30
2019-05-11T06:13:06.794Z,54.65
2019-05-11T06:15:39.203Z,54.23
2019-05-11T06:18:11.718Z,54.89
2019-05-11T06:20:44.374Z,53.32
2019-05-11T06:23:17.336Z,53.37
2019-05-11T06:25:50.028Z,53.49
2019-05-11T06:28:26.207Z,54.42
2019-05-11T06:30:58.820Z,54.97
2019-05-11T06:33:31.135Z,55.13
2019-05-11T06:36:03.776Z,55.14
2019-05-11T06:38:36.857Z,54.72
2019-05-11T06:41:12.823Z,55.17
2019-05-11T06:44:00.676Z,54.86
2019-05-11T06:46:18.894Z,54.88
2019-05-11T06:48:51.804Z,54.79
2019-05-11T06:51:28.013Z,54.49
2019-05-11T06:54:00.575Z,54.57
2019-05-11T06:56:32.930Z,54.67
2019-05-11T06:59:05.778Z,55.16
2019-05-11T07:01:38.395Z,54.66
2019-05-11T07:04:11.375Z,54.20
2019-05-11T07:06:43.634Z,54.33
2019-05-11T07:09:16.010Z,54.72
2019-05-11T07:11:48.873Z,53.48
2019-05-11T07:14:21.634Z,54.44
2019-05-11T07:16:58.006Z,54.35
2019-05-11T07:19:30.798Z,54.19
2019-05-11T07:22:04.400Z,54.16
2019-05-11T07:24:37.815Z,54.65
2019-05-11T07:27:09.948Z,55.02
2019-05-11T07:29:43.604Z,54.46
2019-05-11T07:32:23.056Z,54.59
2019-05-11T07:34:50.479Z,55.36
2019-05-11T07:37:24.447Z,55.76
2019-05-11T07:39:58.068Z,55.38
2019-05-11T07:42:31.129Z,55.17
2019-05-11T07:45:04.799Z,55.19
2019-05-11T07:47:38.068Z,55.42
2019-05-11T07:50:12.691Z,54.91
2019-05-11T07:52:45.555Z,54.71
2019-05-11T07:55:21.327Z,55.03
2019-05-11T07:57:53.490Z,55.01
2019-05-11T08:00:28.051Z,55.00
2019-05-11T08:03:01.301Z,54.66
2019-05-11T08:05:34.920Z,55.04
2019-05-11T08:08:08.690Z,54.24
2019-05-11T08:10:41.675Z,54.03
2019-05-11T09:01:21.130Z,56.10
2019-05-11T09:03:53.630Z,55.36
2019-05-11T09:06:28.292Z,55.54
2019-05-11T09:09:00.158Z,55.21
2019-05-11T09:11:32.519Z,53.40
2019-05-11T09:14:04.884Z,53.96
2019-05-11T09:16:41.833Z,53.89
2019-05-11T09:19:13.917Z,53.63
2019-05-11T09:21:48.233Z,53.11
2019-05-11T09:24:20.406Z,53.84
2019-05-11T09:26:54.139Z,52.23
2019-05-11T09:29:28.209Z,53.16
2019-05-11T09:32:01.142Z,53.42
2019-05-11T09:34:33.335Z,53.37
2019-05-11T09:37:07.774Z,53.60
2019-05-11T09:39:42.279Z,53.90
2019-05-11T09:42:14.362Z,52.86
2019-05-11T09:44:50.924Z,53.36
2019-05-11T09:47:23.808Z,52.51
2019-05-11T09:49:58.295Z,52.41
2019-05-11T09:52:32.609Z,52.11
2019-05-11T09:55:09.098Z,52.65
2019-05-11T09:57:42.188Z,52.42
2019-05-11T10:00:15.009Z,53.07
2019-05-11T10:02:48.773Z,53.64
2019-05-11T10:05:21.410Z,53.21
2019-05-11T10:07:54.653Z,52.58
2019-05-11T10:10:28.943Z,53.19
2019-05-11T10:13:01.374Z,53.72
2019-05-11T10:15:33.711Z,54.49
2019-05-11T10:18:08.697Z,54.59
2019-05-11T10:20:41.361Z,54.95
2019-05-11T10:23:14.437Z,54.51
2019-05-11T10:25:48.088Z,53.57
2019-05-11T10:28:21.479Z,54.02
2019-05-11T10:30:53.981Z,54.00
2019-05-11T10:33:28.127Z,54.35
2019-05-11T10:36:03.393Z,54.50
2019-05-11T10:38:38.053Z,55.44
2019-05-11T10:41:11.098Z,56.15
2019-05-11T10:43:48.866Z,55.77
2019-05-11T10:46:23.574Z,55.49
2019-05-11T10:48:54.987Z,54.42
2019-05-11T10:51:28.794Z,55.02
2019-05-11T10:54:00.825Z,54.15
2019-05-11T10:56:33.297Z,54.36
2019-05-11T10:59:07.858Z,54.66
2019-05-11T11:01:39.517Z,54.70
2019-05-11T11:04:11.725Z,54.24
2019-05-11T11:06:44.489Z,54.83
2019-05-11T11:09:17.867Z,54.67
2019-05-11T11:11:50.146Z,54.29
2019-05-11T11:14:23.353Z,54.77
2019-05-11T11:16:58.147Z,54.38
2019-05-11T11:19:29.575Z,55.53
2019-05-11T11:22:30.272Z,55.44
2019-05-11T11:24:39.010Z,54.91
2019-05-11T11:27:11.098Z,54.87
2019-05-11T11:29:44.286Z,55.34
2019-05-11T11:32:18.236Z,55.84
2019-05-11T11:34:50.240Z,55.98
2019-05-11T11:40:08.396Z,56.16
2019-05-11T11:42:41.860Z,56.08
2019-05-11T11:45:14.612Z,55.66
2019-05-11T11:47:49.316Z,55.09
2019-05-11T11:50:21.235Z,55.76
2019-05-11T11:52:54.703Z,55.25
2019-05-11T11:55:28.990Z,55.00
2019-05-11T11:58:01.060Z,55.37
2019-05-11T12:00:33.114Z,55.26
2019-05-11T12:03:07.852Z,55.18
2019-05-11T12:05:39.738Z,55.33
2019-05-11T12:08:15.417Z,55.05
2019-05-11T12:10:48.517Z,55.49
2019-05-11T12:13:21.051Z,55.91
2019-05-11T12:16:02.613Z,56.21
2019-05-11T12:18:38.195Z,56.89
2019-05-11T12:21:10.114Z,57.29
2019-05-11T12:23:42.726Z,57.61
2019-05-11T12:26:15.045Z,57.74
2019-05-11T12:28:49.048Z,58.17
2019-05-11T12:31:20.656Z,59.32
2019-05-11T12:33:52.466Z,59.97
2019-05-11T12:36:25.295Z,60.33
2019-05-11T12:38:58.034Z,59.98
2019-05-11T12:41:30.847Z,60.98
2019-05-11T12:44:03.491Z,61.60
2019-05-11T12:46:39.393Z,61.62
2019-05-11T12:49:10.979Z,61.65
2019-05-11T12:51:43.148Z,61.94
2019-05-11T12:54:14.719Z,61.85
2019-05-11T12:56:48.995Z,61.55
2019-05-11T12:59:21.060Z,61.53
2019-05-11T13:01:53.241Z,61.57
2019-05-11T13:04:28.207Z,61.74
2019-05-11T13:07:00.667Z,61.65
2019-05-11T13:09:33.118Z,61.71
2019-05-11T13:12:05.513Z,62.03
2019-05-11T13:14:38.225Z,61.92
2019-05-11T13:17:13.239Z,61.84
2019-05-11T13:19:49.581Z,62.03
2019-05-11T13:22:21.889Z,61.67
2019-05-11T13:24:54.547Z,61.40
2019-05-11T13:27:28.357Z,61.30
2019-05-11T13:30:00.615Z,61.45
2019-05-11T13:32:32.375Z,61.50
2019-05-11T13:35:03.665Z,61.32
2019-05-11T13:37:38.691Z,61.13
2019-05-11T13:40:15.685Z,61.02
2019-05-11T13:42:49.018Z,61.05
2019-05-11T13:45:21.290Z,61.12
2019-05-11T13:47:58.469Z,61.21
2019-05-11T13:50:29.610Z,61.04
2019-05-11T13:53:02.421Z,60.94
2019-05-11T13:55:35.020Z,60.79
2019-05-11T13:58:08.356Z,60.46
2019-05-11T14:00:40.951Z,60.20
2019-05-11T14:03:14.066Z,60.13
2019-05-11T14:05:48.328Z,60.33
2019-05-11T14:08:19.951Z,60.27
2019-05-11T14:10:52.941Z,60.52
2019-05-11T14:13:25.298Z,60.71
2019-05-11T14:15:58.660Z,60.91
2019-05-11T14:18:31.698Z,60.96
2019-05-11T14:21:04.181Z,61.41
2019-05-11T14:23:38.783Z,61.42
2019-05-11T14:26:11.371Z,61.68
2019-05-11T14:28:43.217Z,61.73
2019-05-11T14:31:15.593Z,61.66
2019-05-11T14:33:48.848Z,61.98
2019-05-11T14:36:21.572Z,62.19
2019-05-11T14:38:57.703Z,62.15
2019-05-11T14:41:29.869Z,62.43
2019-05-11T14:44:04.555Z,62.45
2019-05-11T14:46:39.886Z,62.57
2019-05-11T14:49:11.777Z,62.48
2019-05-11T14:51:45.112Z,62.27
2019-05-11T14:54:18.845Z,62.79
2019-05-11T14:56:50.799Z,62.88
2019-05-11T14:59:23.143Z,62.77
2019-05-11T15:01:55.299Z,62.80
2019-05-11T15:04:28.639Z,62.77
2019-05-11T15:07:01.542Z,62.79
2019-05-11T15:09:34.174Z,62.90
2019-05-11T15:12:08.557Z,63.01
2019-05-11T15:14:43.527Z,62.91
2019-05-11T15:17:15.867Z,62.93
2019-05-11T15:19:48.846Z,63.11
2019-05-11T15:22:21.769Z,63.19
2019-05-11T15:24:58.798Z,63.12
2019-05-11T15:27:30.933Z,63.24
2019-05-11T15:30:07.872Z,63.28
2019-05-11T15:32:40.034Z,63.31
2019-05-11T15:35:13.519Z,63.43
2019-05-11T15:37:47.938Z,63.49
2019-05-11T15:40:24.123Z,63.70
2019-05-11T15:42:59.970Z,63.75
2019-05-11T15:45:32.714Z,63.86
2019-05-11T15:48:58.541Z,64.31
2019-05-11T15:51:20.093Z,63.60
2019-05-11T15:53:58.709Z,64.23
2019-05-11T15:56:38.323Z,64.19
2019-05-11T15:59:12.232Z,65.72
2019-05-11T16:01:45.730Z,65.09
2019-05-11T16:04:27.955Z,66.26
2019-05-11T16:07:08.363Z,66.89
2019-05-11T16:09:45.920Z,65.69
2019-05-11T16:12:20.684Z,66.20
2019-05-11T16:14:52.924Z,65.79
2019-05-11T16:17:25.285Z,66.64
2019-05-11T16:19:58.534Z,66.90
2019-05-11T16:22:31.173Z,67.49
2019-05-11T16:25:03.767Z,67.19
2019-05-11T16:30:34.106Z,69.27
2019-05-11T16:33:08.719Z,68.28
2019-05-11T16:35:42.032Z,68.69
2019-05-11T16:38:23.082Z,69.29
2019-05-11T16:40:58.321Z,68.37
2019-05-11T16:43:30.258Z,68.12
2019-05-11T16:46:09.050Z,70.19
2019-05-11T16:48:41.903Z,68.84
2019-05-11T16:51:17.751Z,69.55
2019-05-11T16:53:50.196Z,70.33
2019-05-11T16:56:24.077Z,68.86
2019-05-11T16:58:58.928Z,67.99
2019-05-11T17:01:32.425Z,68.57
2019-05-11T17:04:05.574Z,69.06
2019-05-11T17:06:38.790Z,69.50
2019-05-11T17:09:11.660Z,68.31
2019-05-11T17:11:51.293Z,69.12
2019-05-11T17:14:28.176Z,69.05
2019-05-11T17:17:01.391Z,69.29
2019-05-11T17:19:43.729Z,69.49
2019-05-11T17:22:11.171Z,68.86
2019-05-11T17:24:43.691Z,70.07
2019-05-11T17:27:17.826Z,70.63
2019-05-11T17:29:59.117Z,68.81
2019-05-11T17:32:30.839Z,70.19
2019-05-11T17:35:02.889Z,69.51
2019-05-11T17:37:37.872Z,67.58
2019-05-11T17:40:10.830Z,69.88
2019-05-11T17:42:43.572Z,69.09
2019-05-11T17:45:19.049Z,70.74
2019-05-11T17:47:51.018Z,70.47
2019-05-11T17:50:23.645Z,69.31
2019-05-11T17:52:56.438Z,69.38
2019-05-11T17:55:29.500Z,69.11
2019-05-11T17:58:02.589Z,70.58
2019-05-11T18:00:34.704Z,70.62
2019-05-11T18:03:11.014Z,69.96
2019-05-11T18:05:45.201Z,69.28
2019-05-11T18:08:19.097Z,69.69
2019-05-11T18:10:52.336Z,69.48
2019-05-11T18:13:27.722Z,70.08
2019-05-11T18:16:00.028Z,69.48
2019-05-11T18:18:33.398Z,68.35
2019-05-11T18:21:10.357Z,69.03
2019-05-11T18:23:48.017Z,69.73
2019-05-11T18:26:28.617Z,68.72
2019-05-11T18:29:02.374Z,70.47
2019-05-11T18:31:42.909Z,70.05
2019-05-11T18:34:23.107Z,70.84
2019-05-11T18:37:02.951Z,68.64
2019-05-11T18:39:35.408Z,69.12
2019-05-11T18:42:08.843Z,68.30
2019-05-11T18:44:41.745Z,69.01
2019-05-11T18:47:13.860Z,67.74
2019-05-11T18:49:48.472Z,69.53
2019-05-11T18:52:20.965Z,67.18
2019-05-11T18:54:57.914Z,68.39
2019-05-11T18:57:31.955Z,67.15
2019-05-11T19:00:05.117Z,67.20
2019-05-11T19:02:45.188Z,65.97
2019-05-11T19:05:18.055Z,67.16
2019-05-11T19:07:58.451Z,66.23
2019-05-11T19:10:31.085Z,66.86
2019-05-11T19:13:09.367Z,66.33
2019-05-11T19:15:43.425Z,66.30
2019-05-11T19:18:17.921Z,65.75
2019-05-11T19:20:50.656Z,65.45
2019-05-11T19:23:23.753Z,64.42
2019-05-11T19:25:57.876Z,63.25
2019-05-11T19:28:30.655Z,62.78
2019-05-11T19:31:11.148Z,65.53
2019-05-11T19:33:45.680Z,63.42
2019-05-11T19:36:17.401Z,64.09
2019-05-11T19:38:50.386Z,62.80
2019-05-11T19:41:23.365Z,63.18
2019-05-11T19:43:57.734Z,63.16
2019-05-11T19:46:42.836Z,62.32
2019-05-11T19:49:15.849Z,61.46
2019-05-11T19:51:48.837Z,63.22
2019-05-11T19:54:21.458Z,63.34
2019-05-11T19:56:53.731Z,63.26
2019-05-11T19:59:28.001Z,63.00
2019-05-11T20:02:05.280Z,63.52
2019-05-11T20:04:45.199Z,63.25
2019-05-11T20:07:18.464Z,62.31
2019-05-11T20:09:51.818Z,63.54
2019-05-11T20:12:31.939Z,62.68
2019-05-11T20:15:08.088Z,62.65
2019-05-11T20:17:40.088Z,63.30
2019-05-11T20:20:13.023Z,64.04
2019-05-11T20:22:47.957Z,64.04
2019-05-11T20:25:19.477Z,62.32
2019-05-11T20:27:58.949Z,63.80
2019-05-11T20:30:38.372Z,62.31
2019-05-11T20:33:12.569Z,62.46
2019-05-11T20:35:48.827Z,63.91
2019-05-11T20:38:21.262Z,63.26
2019-05-11T20:40:53.889Z,62.72
2019-05-11T20:43:28.102Z,62.88
2019-05-11T20:46:04.036Z,63.46
2019-05-11T20:48:38.247Z,63.79
2019-05-11T20:51:10.312Z,64.80
2019-05-11T20:53:46.210Z,64.56
2019-05-11T20:56:17.991Z,63.15
2019-05-11T20:58:52.212Z,64.00
2019-05-11T21:01:28.652Z,64.27
2019-05-11T21:04:08.834Z,63.34
2019-05-11T21:06:48.764Z,64.65
2019-05-11T21:09:21.137Z,63.89
2019-05-11T21:11:54.077Z,65.23
2019-05-11T21:14:34.218Z,64.13
2019-05-11T21:17:09.025Z,64.33
2019-05-11T21:19:58.073Z,64.25
2019-05-11T21:22:30.922Z,65.44
2019-05-11T21:25:05.070Z,65.43
2019-05-11T21:27:38.782Z,64.88
2019-05-11T21:30:12.402Z,65.16
2019-05-11T21:32:48.200Z,64.90
2019-05-11T21:35:21.724Z,64.98
2019-05-11T21:37:54.289Z,65.18
2019-05-11T21:40:28.971Z,65.40
2019-05-11T21:43:00.506Z,65.28
2019-05-11T21:45:33.147Z,65.63
2019-05-11T21:48:06.082Z,66.91
2019-05-11T21:50:39.528Z,65.30
2019-05-11T21:53:12.409Z,65.27
2019-05-11T21:55:45.141Z,65.14
2019-05-11T21:58:18.560Z,65.83
2019-05-11T22:00:52.739Z,67.47
2019-05-11T22:03:28.106Z,65.77
2019-05-11T22:06:03.274Z,66.18
2019-05-11T22:08:42.647Z,66.52
2019-05-11T22:11:14.969Z,66.54
2019-05-11T22:13:50.689Z,65.41
2019-05-11T22:16:23.161Z,65.44
2019-05-11T22:18:57.965Z,64.89
2019-05-11T22:21:31.141Z,65.76
2019-05-11T22:24:03.577Z,64.85
2019-05-11T22:26:37.962Z,65.64
2019-05-11T22:29:09.956Z,67.04
2019-05-11T22:31:52.457Z,65.42
2019-05-11T22:34:31.749Z,65.53
2019-05-11T22:37:12.135Z,64.54
2019-05-11T22:39:44.862Z,66.50
2019-05-11T22:42:18.435Z,66.06
2019-05-11T22:44:54.013Z,64.60
2019-05-11T22:47:28.473Z,67.08
2019-05-11T22:50:08.775Z,66.41
